Wetterstation Vordersexau
Wetterdaten: Woche 12.06.23 - 18.06.23 (KW24)
Datum Zeit Temp. A. Feuchte A. Luftdruck Regen Wind Richtung Taupunkt Windchill Windben
12.06.2023 00:00 21,6 C 48 % 1008,7 hPa 0,0 l/m 0,0 km/h (0 Bft) N 10,1 C 21,6 C 0,0 km/h (0 Bft)
12.06.2023 01:00 20,8 C 50 % 1008,6 hPa 0,0 l/m 0,0 km/h (0 Bft) O-SO 10,0 C 20,8 C 0,0 km/h (0 Bft)
12.06.2023 02:00 19,7 C 53 % 1008,9 hPa 0,0 l/m 1,1 km/h (1 Bft) N 9,8 C 19,7 C 2,5 km/h (1 Bft)
12.06.2023 03:00 16,5 C 69 % 1009,0 hPa 0,0 l/m 0,0 km/h (0 Bft) N 10,8 C 16,5 C 0,0 km/h (0 Bft)
12.06.2023 04:00 15,6 C 71 % 1008,9 hPa 0,0 l/m 0,0 km/h (0 Bft) O-NO 10,4 C 15,6 C 0,0 km/h (0 Bft)
12.06.2023 05:00 14,9 C 72 % 1009,0 hPa 0,0 l/m 2,5 km/h (1 Bft) N 9,9 C 14,9 C 3,6 km/h (1 Bft)
12.06.2023 06:00 15,3 C 70 % 1009,1 hPa 0,0 l/m 0,0 km/h (0 Bft) O-NO 9,9 C 15,3 C 0,0 km/h (0 Bft)
12.06.2023 07:00 15,5 C 71 % 1009,6 hPa 0,0 l/m 1,1 km/h (1 Bft) SO 10,3 C 15,5 C 2,5 km/h (1 Bft)
12.06.2023 08:00 16,9 C 69 % 1009,4 hPa 0,0 l/m 2,5 km/h (1 Bft) O 11,2 C 16,9 C 3,6 km/h (1 Bft)
12.06.2023 09:00 20,5 C 63 % 1009,7 hPa 0,0 l/m 1,1 km/h (1 Bft) NO 13,2 C 20,5 C 2,5 km/h (1 Bft)
12.06.2023 10:00 23,7 C 49 % 1009,4 hPa 0,0 l/m 3,6 km/h (1 Bft) N-NO 12,3 C 23,7 C 7,2 km/h (2 Bft)
12.06.2023 11:00 25,7 C 43 % 1009,0 hPa 0,0 l/m 5,0 km/h (1 Bft) O-NO 12,2 C 25,7 C 7,2 km/h (2 Bft)
12.06.2023 12:00 27,2 C 38 % 1008,9 hPa 0,0 l/m 2,5 km/h (1 Bft) NO 11,6 C 27,2 C 3,6 km/h (1 Bft)
12.06.2023 13:00 27,7 C 36 % 1008,4 hPa 0,0 l/m 3,6 km/h (1 Bft) NO 11,3 C 27,7 C 7,2 km/h (2 Bft)
12.06.2023 14:00 28,2 C 35 % 1007,9 hPa 0,0 l/m 2,5 km/h (1 Bft) O-NO 11,3 C 28,2 C 6,1 km/h (2 Bft)
12.06.2023 15:00 29,4 C 32 % 1007,2 hPa 0,0 l/m 7,2 km/h (2 Bft) N-NO 11,0 C 29,3 C 11,2 km/h (2 Bft)
12.06.2023 16:00 29,5 C 30 % 1006,8 hPa 0,0 l/m 5,0 km/h (1 Bft) NO 10,1 C 29,5 C 9,7 km/h (2 Bft)
12.06.2023 17:00 29,4 C 31 % 1006,4 hPa 0,0 l/m 5,0 km/h (1 Bft) O-NO 10,5 C 29,4 C 9,7 km/h (2 Bft)
12.06.2023 18:00 29,1 C 33 % 1006,1 hPa 0,0 l/m 6,1 km/h (2 Bft) O-NO 11,2 C 29,1 C 13,3 km/h (3 Bft)
12.06.2023 19:00 28,4 C 33 % 1005,9 hPa 0,0 l/m 6,1 km/h (2 Bft) NO 10,6 C 28,4 C 9,7 km/h (2 Bft)
12.06.2023 20:00 27,3 C 35 % 1005,8 hPa 0,0 l/m 7,2 km/h (2 Bft) N-NO 10,5 C 27,2 C 11,2 km/h (2 Bft)
12.06.2023 21:00 25,9 C 37 % 1006,0 hPa 0,0 l/m 2,5 km/h (1 Bft) N 10,1 C 25,9 C 3,6 km/h (1 Bft)
12.06.2023 22:00 24,1 C 39 % 1006,5 hPa 0,0 l/m 0,0 km/h (0 Bft) N-NO 9,3 C 24,1 C 2,5 km/h (1 Bft)
12.06.2023 23:00 23,5 C 39 % 1006,8 hPa 0,0 l/m 2,5 km/h (1 Bft) O-SO 8,7 C 23,5 C 7,2 km/h (2 Bft)
13.06.2023 00:00 20,1 C 50 % 1007,2 hPa 0,0 l/m 3,6 km/h (1 Bft) O 9,3 C 20,1 C 6,1 km/h (2 Bft)
13.06.2023 01:00 16,6 C 63 % 1007,1 hPa 0,0 l/m 1,1 km/h (1 Bft) O-SO 9,5 C 16,6 C 2,5 km/h (1 Bft)
13.06.2023 02:00 17,4 C 58 % 1006,8 hPa 0,0 l/m 1,1 km/h (1 Bft) N 9,1 C 17,4 C 2,5 km/h (1 Bft)
13.06.2023 03:00 14,8 C 69 % 1006,7 hPa 0,0 l/m 0,0 km/h (0 Bft) N 9,2 C 14,8 C 0,0 km/h (0 Bft)
13.06.2023 04:00 12,6 C 77 % 1006,4 hPa 0,0 l/m 0,0 km/h (0 Bft) N 8,7 C 12,6 C 0,0 km/h (0 Bft)
13.06.2023 05:00 12,2 C 76 % 1006,5 hPa 0,0 l/m 0,0 km/h (0 Bft) O-SO 8,1 C 12,2 C 0,0 km/h (0 Bft)
13.06.2023 06:00 11,9 C 77 % 1006,8 hPa 0,0 l/m 2,5 km/h (1 Bft) O 8,0 C 11,9 C 2,5 km/h (1 Bft)
13.06.2023 07:00 12,2 C 76 % 1007,1 hPa 0,0 l/m 1,1 km/h (1 Bft) O 8,1 C 12,2 C 2,5 km/h (1 Bft)
13.06.2023 08:00 15,4 C 69 % 1007,2 hPa 0,0 l/m 2,5 km/h (1 Bft) NO 9,7 C 15,4 C 3,6 km/h (1 Bft)
13.06.2023 09:00 19,5 C 49 % 1006,7 hPa 0,0 l/m 3,6 km/h (1 Bft) NO 8,5 C 19,5 C 6,1 km/h (2 Bft)
13.06.2023 10:00 21,1 C 42 % 1006,5 hPa 0,0 l/m 3,6 km/h (1 Bft) N 7,7 C 21,1 C 6,1 km/h (2 Bft)
13.06.2023 11:00 23,0 C 40 % 1006,1 hPa 0,0 l/m 3,6 km/h (1 Bft) N 8,7 C 23,0 C 6,1 km/h (2 Bft)
13.06.2023 12:00 24,2 C 38 % 1005,9 hPa 0,0 l/m 3,6 km/h (1 Bft) N 9,0 C 24,2 C 7,2 km/h (2 Bft)
13.06.2023 13:00 25,8 C 35 % 1005,5 hPa 0,0 l/m 2,5 km/h (1 Bft) O-NO 9,2 C 25,8 C 6,1 km/h (2 Bft)
13.06.2023 14:00 26,8 C 28 % 1005,2 hPa 0,0 l/m 5,0 km/h (1 Bft) NO 6,8 C 26,8 C 9,7 km/h (2 Bft)
13.06.2023 15:00 27,5 C 26 % 1004,7 hPa 0,0 l/m 3,6 km/h (1 Bft) NO 6,3 C 27,5 C 6,1 km/h (2 Bft)
13.06.2023 16:00 28,6 C 26 % 1004,0 hPa 0,0 l/m 3,6 km/h (1 Bft) N-NO 7,2 C 28,6 C 7,2 km/h (2 Bft)
13.06.2023 17:00 28,6 C 22 % 1003,9 hPa 0,0 l/m 5,0 km/h (1 Bft) N-NO 4,8 C 28,6 C 7,2 km/h (2 Bft)
13.06.2023 18:00 28,3 C 21 % 1003,7 hPa 0,0 l/m 5,0 km/h (1 Bft) N 3,9 C 28,3 C 7,2 km/h (2 Bft)
13.06.2023 19:00 27,5 C 24 % 1003,9 hPa 0,0 l/m 3,6 km/h (1 Bft) N-NO 5,1 C 27,5 C 7,2 km/h (2 Bft)
13.06.2023 20:00 26,3 C 26 % 1004,1 hPa 0,0 l/m 3,6 km/h (1 Bft) NO 5,3 C 26,3 C 7,2 km/h (2 Bft)
13.06.2023 21:00 24,5 C 30 % 1004,4 hPa 0,0 l/m 2,5 km/h (1 Bft) N-NO 5,8 C 24,5 C 6,1 km/h (2 Bft)
13.06.2023 22:00 22,0 C 35 % 1005,1 hPa 0,0 l/m 2,5 km/h (1 Bft) N-NO 5,8 C 22,0 C 3,6 km/h (1 Bft)
13.06.2023 23:00 17,4 C 50 % 1006,1 hPa 0,0 l/m 1,1 km/h (1 Bft) N 6,9 C 17,4 C 2,5 km/h (1 Bft)
14.06.2023 00:00 17,3 C 45 % 1006,4 hPa 0,0 l/m 0,0 km/h (0 Bft) O 5,3 C 17,3 C 2,5 km/h (1 Bft)
14.06.2023 01:00 13,9 C 62 % 1006,8 hPa 0,0 l/m 3,6 km/h (1 Bft) O 6,7 C 13,9 C 3,6 km/h (1 Bft)
14.06.2023 02:00 13,5 C 60 % 1007,0 hPa 0,0 l/m 1,1 km/h (1 Bft) O 5,9 C 13,5 C 2,5 km/h (1 Bft)
14.06.2023 03:00 12,7 C 64 % 1006,7 hPa 0,0 l/m 1,1 km/h (1 Bft) O 6,1 C 12,7 C 3,6 km/h (1 Bft)
14.06.2023 04:00 10,9 C 70 % 1006,8 hPa 0,0 l/m 1,1 km/h (1 Bft) NO 5,6 C 10,9 C 3,6 km/h (1 Bft)
14.06.2023 05:00 11,9 C 66 % 1006,8 hPa 0,0 l/m 1,1 km/h (1 Bft) O-NO 5,8 C 11,9 C 2,5 km/h (1 Bft)
14.06.2023 06:00 11,8 C 66 % 1007,1 hPa 0,0 l/m 1,1 km/h (1 Bft) N 5,7 C 11,8 C 3,6 km/h (1 Bft)
14.06.2023 07:00 12,1 C 66 % 1007,4 hPa 0,0 l/m 0,0 km/h (0 Bft) O 5,9 C 12,1 C 0,0 km/h (0 Bft)
14.06.2023 08:00 13,4 C 66 % 1008,0 hPa 0,0 l/m 2,5 km/h (1 Bft) N-NW 7,2 C 13,4 C 3,6 km/h (1 Bft)
14.06.2023 09:00 15,6 C 63 % 1008,3 hPa 0,0 l/m 2,5 km/h (1 Bft) W-NW 8,6 C 15,6 C 3,6 km/h (1 Bft)
14.06.2023 10:00 18,7 C 56 % 1008,5 hPa 0,0 l/m 1,1 km/h (1 Bft) W-SW 9,7 C 18,7 C 3,6 km/h (1 Bft)
14.06.2023 11:00 21,4 C 50 % 1008,4 hPa 0,0 l/m 3,6 km/h (1 Bft) NW 10,5 C 21,4 C 6,1 km/h (2 Bft)
14.06.2023 12:00 24,8 C 41 % 1008,3 hPa 0,0 l/m 3,6 km/h (1 Bft) N 10,6 C 24,8 C 6,1 km/h (2 Bft)
14.06.2023 13:00 26,7 C 31 % 1008,1 hPa 0,0 l/m 3,6 km/h (1 Bft) NW 8,2 C 26,7 C 7,2 km/h (2 Bft)
14.06.2023 14:00 26,5 C 36 % 1007,9 hPa 0,0 l/m 5,0 km/h (1 Bft) N 10,2 C 26,5 C 11,2 km/h (2 Bft)
14.06.2023 15:00 26,9 C 34 % 1007,5 hPa 0,0 l/m 3,6 km/h (1 Bft) NW 9,7 C 26,9 C 9,7 km/h (2 Bft)
14.06.2023 16:00 26,9 C 35 % 1007,8 hPa 0,0 l/m 6,1 km/h (2 Bft) NW 10,1 C 26,9 C 11,2 km/h (2 Bft)
14.06.2023 17:00 26,9 C 35 % 1007,6 hPa 0,0 l/m 3,6 km/h (1 Bft) N-NO 10,1 C 26,9 C 7,2 km/h (2 Bft)
14.06.2023 18:00 26,4 C 36 % 1007,7 hPa 0,0 l/m 7,2 km/h (2 Bft) N 10,1 C 26,2 C 13,3 km/h (3 Bft)
14.06.2023 19:00 25,9 C 37 % 1007,8 hPa 0,0 l/m 6,1 km/h (2 Bft) NO 10,1 C 25,9 C 9,7 km/h (2 Bft)
14.06.2023 20:00 24,9 C 39 % 1008,3 hPa 0,0 l/m 6,1 km/h (2 Bft) N 10,0 C 24,9 C 9,7 km/h (2 Bft)
14.06.2023 21:00 23,7 C 42 % 1008,8 hPa 0,0 l/m 0,0 km/h (0 Bft) N-NO 10,0 C 23,7 C 2,5 km/h (1 Bft)
14.06.2023 22:00 21,8 C 46 % 1009,3 hPa 0,0 l/m 1,1 km/h (1 Bft) N-NO 9,7 C 21,8 C 2,5 km/h (1 Bft)
14.06.2023 23:00 19,6 C 53 % 1010,2 hPa 0,0 l/m 1,1 km/h (1 Bft) N-NO 9,8 C 19,6 C 2,5 km/h (1 Bft)
15.06.2023 00:00 16,3 C 66 % 1010,4 hPa 0,0 l/m 1,1 km/h (1 Bft) N-NO 9,9 C 16,3 C 2,5 km/h (1 Bft)
15.06.2023 01:00 14,6 C 71 % 1010,5 hPa 0,0 l/m 0,0 km/h (0 Bft) N-NO 9,4 C 14,6 C 0,0 km/h (0 Bft)
15.06.2023 02:00 15,3 C 70 % 1010,3 hPa 0,0 l/m 1,1 km/h (1 Bft) N 9,9 C 15,3 C 2,5 km/h (1 Bft)
15.06.2023 03:00 12,9 C 80 % 1010,6 hPa 0,0 l/m 0,0 km/h (0 Bft) N 9,5 C 12,9 C 0,0 km/h (0 Bft)
15.06.2023 04:00 13,2 C 77 % 1010,7 hPa 0,0 l/m 0,0 km/h (0 Bft) N 9,3 C 13,2 C 0,0 km/h (0 Bft)
15.06.2023 05:00 11,0 C 85 % 1010,9 hPa 0,0 l/m 0,0 km/h (0 Bft) N 8,6 C 11,0 C 0,0 km/h (0 Bft)
15.06.2023 06:00 11,4 C 83 % 1011,0 hPa 0,0 l/m 0,0 km/h (0 Bft) N 8,6 C 11,4 C 0,0 km/h (0 Bft)
15.06.2023 07:00 10,8 C 86 % 1011,7 hPa 0,0 l/m 0,0 km/h (0 Bft) N 8,6 C 10,8 C 0,0 km/h (0 Bft)
15.06.2023 08:00 12,7 C 84 % 1012,0 hPa 0,0 l/m 0,0 km/h (0 Bft) N-NO 10,1 C 12,7 C 0,0 km/h (0 Bft)
15.06.2023 09:00 15,4 C 73 % 1012,3 hPa 0,0 l/m 1,1 km/h (1 Bft) N-NW 10,6 C 15,4 C 2,5 km/h (1 Bft)
15.06.2023 10:00 17,6 C 68 % 1012,5 hPa 0,0 l/m 2,5 km/h (1 Bft) W 11,6 C 17,6 C 3,6 km/h (1 Bft)
15.06.2023 11:00 20,5 C 59 % 1012,4 hPa 0,0 l/m 1,1 km/h (1 Bft) SW 12,2 C 20,5 C 3,6 km/h (1 Bft)
15.06.2023 12:00 23,1 C 58 % 1012,4 hPa 0,0 l/m 2,5 km/h (1 Bft) NW 14,4 C 23,1 C 6,1 km/h (2 Bft)
15.06.2023 13:00 24,8 C 49 % 1012,1 hPa 0,0 l/m 3,6 km/h (1 Bft) W-NW 13,3 C 24,8 C 6,1 km/h (2 Bft)
15.06.2023 14:00 26,6 C 46 % 1011,8 hPa 0,0 l/m 5,0 km/h (1 Bft) W 14,0 C 26,6 C 7,2 km/h (2 Bft)
15.06.2023 15:00 27,5 C 38 % 1011,3 hPa 0,0 l/m 7,2 km/h (2 Bft) N-NO 11,9 C 27,4 C 13,3 km/h (3 Bft)
15.06.2023 16:00 25,9 C 39 % 1011,4 hPa 0,0 l/m 2,5 km/h (1 Bft) NW 10,9 C 25,9 C 3,6 km/h (1 Bft)
15.06.2023 17:00 26,2 C 37 % 1011,2 hPa 0,0 l/m 2,5 km/h (1 Bft) NO 10,3 C 26,2 C 6,1 km/h (2 Bft)
15.06.2023 18:00 26,2 C 38 % 1011,1 hPa 0,0 l/m 3,6 km/h (1 Bft) N-NO 10,7 C 26,2 C 6,1 km/h (2 Bft)
15.06.2023 19:00 27,4 C 36 % 1010,9 hPa 0,0 l/m 3,6 km/h (1 Bft) N-NW 11,0 C 27,4 C 6,1 km/h (2 Bft)
15.06.2023 20:00 26,2 C 37 % 1011,0 hPa 0,0 l/m 3,6 km/h (1 Bft) N 10,3 C 26,2 C 6,1 km/h (2 Bft)
15.06.2023 21:00 24,7 C 41 % 1011,2 hPa 0,0 l/m 1,1 km/h (1 Bft) N 10,6 C 24,7 C 3,6 km/h (1 Bft)
15.06.2023 22:00 22,7 C 51 % 1011,5 hPa 0,0 l/m 0,0 km/h (0 Bft) N 12,0 C 22,7 C 2,5 km/h (1 Bft)
15.06.2023 23:00 19,2 C 60 % 1012,2 hPa 0,0 l/m 0,0 km/h (0 Bft) N 11,2 C 19,2 C 2,5 km/h (1 Bft)
16.06.2023 00:00 18,4 C 61 % 1012,6 hPa 0,0 l/m 0,0 km/h (0 Bft) O-NO 10,7 C 18,4 C 0,0 km/h (0 Bft)
16.06.2023 01:00 16,7 C 66 % 1012,6 hPa 0,0 l/m 2,5 km/h (1 Bft) N 10,3 C 16,7 C 3,6 km/h (1 Bft)
16.06.2023 02:00 15,0 C 72 % 1012,6 hPa 0,0 l/m 0,0 km/h (0 Bft) N-NW 10,0 C 15,0 C 2,5 km/h (1 Bft)
16.06.2023 03:00 15,0 C 69 % 1012,4 hPa 0,0 l/m 2,5 km/h (1 Bft) O 9,4 C 15,0 C 7,2 km/h (2 Bft)
16.06.2023 04:00 13,0 C 77 % 1012,5 hPa 0,0 l/m 2,5 km/h (1 Bft) N 9,1 C 13,0 C 3,6 km/h (1 Bft)
16.06.2023 05:00 12,8 C 77 % 1012,8 hPa 0,0 l/m 0,0 km/h (0 Bft) N 8,9 C 12,8 C 0,0 km/h (0 Bft)
16.06.2023 06:00 11,9 C 80 % 1012,8 hPa 0,0 l/m 0,0 km/h (0 Bft) O 8,6 C 11,9 C 0,0 km/h (0 Bft)
16.06.2023 07:00 12,8 C 76 % 1013,0 hPa 0,0 l/m 1,1 km/h (1 Bft) O 8,7 C 12,8 C 2,5 km/h (1 Bft)
16.06.2023 08:00 14,6 C 73 % 1013,3 hPa 0,0 l/m 2,5 km/h (1 Bft) N 9,8 C 14,6 C 3,6 km/h (1 Bft)
16.06.2023 09:00 17,8 C 65 % 1013,6 hPa 0,0 l/m 0,0 km/h (0 Bft) O-NO 11,1 C 17,8 C 2,5 km/h (1 Bft)
16.06.2023 10:00 20,5 C 55 % 1014,0 hPa 0,0 l/m 1,1 km/h (1 Bft) N 11,1 C 20,5 C 2,5 km/h (1 Bft)
16.06.2023 11:00 23,1 C 50 % 1013,8 hPa 0,0 l/m 0,0 km/h (0 Bft) W 12,1 C 23,1 C 2,5 km/h (1 Bft)
16.06.2023 12:00 25,5 C 41 % 1013,4 hPa 0,0 l/m 2,5 km/h (1 Bft) W-SW 11,3 C 25,5 C 3,6 km/h (1 Bft)
16.06.2023 13:00 26,9 C 32 % 1013,0 hPa 0,0 l/m 5,0 km/h (1 Bft) W-NW 8,8 C 26,9 C 7,2 km/h (2 Bft)
16.06.2023 14:00 27,5 C 31 % 1013,1 hPa 0,0 l/m 5,0 km/h (1 Bft) N-NO 8,8 C 27,5 C 7,2 km/h (2 Bft)
16.06.2023 15:00 27,5 C 31 % 1012,6 hPa 0,0 l/m 3,6 km/h (1 Bft) NW 8,8 C 27,5 C 6,1 km/h (2 Bft)
16.06.2023 16:00 27,3 C 32 % 1012,3 hPa 0,0 l/m 2,5 km/h (1 Bft) W-NW 9,1 C 27,3 C 3,6 km/h (1 Bft)
16.06.2023 17:00 28,2 C 32 % 1011,8 hPa 0,0 l/m 3,6 km/h (1 Bft) N-NO 9,9 C 28,2 C 6,1 km/h (2 Bft)
16.06.2023 18:00 28,0 C 30 % 1011,7 hPa 0,0 l/m 2,5 km/h (1 Bft) W-NW 8,8 C 28,0 C 3,6 km/h (1 Bft)
16.06.2023 19:00 27,0 C 31 % 1011,4 hPa 0,0 l/m 2,5 km/h (1 Bft) N-NW 8,4 C 27,0 C 3,6 km/h (1 Bft)
16.06.2023 20:00 26,7 C 34 % 1011,3 hPa 0,0 l/m 2,5 km/h (1 Bft) N 9,5 C 26,7 C 6,1 km/h (2 Bft)
16.06.2023 21:00 24,7 C 38 % 1011,3 hPa 0,0 l/m 0,0 km/h (0 Bft) NO 9,4 C 24,7 C 2,5 km/h (1 Bft)
16.06.2023 22:00 20,6 C 50 % 1011,4 hPa 0,0 l/m 1,1 km/h (1 Bft) NO 9,8 C 20,6 C 2,5 km/h (1 Bft)
16.06.2023 23:00 17,6 C 60 % 1012,1 hPa 0,0 l/m 1,1 km/h (1 Bft) N 9,7 C 17,6 C 2,5 km/h (1 Bft)
17.06.2023 00:00 17,0 C 60 % 1012,2 hPa 0,0 l/m 0,0 km/h (0 Bft) NO 9,2 C 17,0 C 0,0 km/h (0 Bft)
17.06.2023 01:00 16,0 C 63 % 1012,2 hPa 0,0 l/m 1,1 km/h (1 Bft) N 9,0 C 16,0 C 2,5 km/h (1 Bft)
17.06.2023 02:00 15,1 C 66 % 1012,1 hPa 0,0 l/m 0,0 km/h (0 Bft) NO 8,8 C 15,1 C 2,5 km/h (1 Bft)
17.06.2023 03:00 14,5 C 67 % 1011,8 hPa 0,0 l/m 1,1 km/h (1 Bft) N 8,4 C 14,5 C 2,5 km/h (1 Bft)
17.06.2023 04:00 13,6 C 69 % 1011,6 hPa 0,0 l/m 0,0 km/h (0 Bft) O-SO 8,0 C 13,6 C 2,5 km/h (1 Bft)
17.06.2023 05:00 12,8 C 72 % 1011,7 hPa 0,0 l/m 1,1 km/h (1 Bft) N 7,9 C 12,8 C 2,5 km/h (1 Bft)
17.06.2023 06:00 12,6 C 73 % 1011,7 hPa 0,0 l/m 0,0 km/h (0 Bft) O 7,9 C 12,6 C 2,5 km/h (1 Bft)
17.06.2023 07:00 12,9 C 72 % 1011,6 hPa 0,0 l/m 1,1 km/h (1 Bft) N 8,0 C 12,9 C 2,5 km/h (1 Bft)
17.06.2023 08:00 14,7 C 70 % 1012,0 hPa 0,0 l/m 0,0 km/h (0 Bft) N 9,3 C 14,7 C 2,5 km/h (1 Bft)
17.06.2023 09:00 18,0 C 62 % 1012,2 hPa 0,0 l/m 0,0 km/h (0 Bft) O 10,6 C 18,0 C 2,5 km/h (1 Bft)
17.06.2023 10:00 21,5 C 49 % 1012,1 hPa 0,0 l/m 1,1 km/h (1 Bft) N-NO 10,3 C 21,5 C 2,5 km/h (1 Bft)
17.06.2023 11:00 24,8 C 40 % 1011,7 hPa 0,0 l/m 1,1 km/h (1 Bft) W-SW 10,3 C 24,8 C 2,5 km/h (1 Bft)
17.06.2023 12:00 27,2 C 34 % 1011,2 hPa 0,0 l/m 2,5 km/h (1 Bft) NO 10,0 C 27,2 C 3,6 km/h (1 Bft)
17.06.2023 13:00 27,9 C 32 % 1010,9 hPa 0,0 l/m 2,5 km/h (1 Bft) W-SW 9,7 C 27,9 C 3,6 km/h (1 Bft)
17.06.2023 14:00 28,4 C 30 % 1010,9 hPa 0,0 l/m 6,1 km/h (2 Bft) W-NW 9,1 C 28,4 C 7,2 km/h (2 Bft)
17.06.2023 15:00 29,6 C 29 % 1010,5 hPa 0,0 l/m 3,6 km/h (1 Bft) W-NW 9,7 C 29,6 C 7,2 km/h (2 Bft)
17.06.2023 16:00 29,6 C 30 % 1009,7 hPa 0,0 l/m 2,5 km/h (1 Bft) W-NW 10,2 C 29,6 C 3,6 km/h (1 Bft)
17.06.2023 17:00 29,9 C 31 % 1009,5 hPa 0,0 l/m 1,1 km/h (1 Bft) W 10,9 C 29,9 C 3,6 km/h (1 Bft)
17.06.2023 18:00 29,3 C 30 % 1009,2 hPa 0,0 l/m 3,6 km/h (1 Bft) N 9,9 C 29,3 C 7,2 km/h (2 Bft)
17.06.2023 19:00 29,3 C 31 % 1009,0 hPa 0,0 l/m 0,0 km/h (0 Bft) N-NO 10,4 C 29,3 C 0,0 km/h (0 Bft)
17.06.2023 20:00 27,9 C 34 % 1008,9 hPa 0,0 l/m 2,5 km/h (1 Bft) N-NO 10,6 C 27,9 C 3,6 km/h (1 Bft)
17.06.2023 21:00 25,3 C 45 % 1009,1 hPa 0,0 l/m 1,1 km/h (1 Bft) N 12,5 C 25,3 C 2,5 km/h (1 Bft)
17.06.2023 22:00 22,5 C 50 % 1009,5 hPa 0,0 l/m 0,0 km/h (0 Bft) N 11,5 C 22,5 C 2,5 km/h (1 Bft)
17.06.2023 23:00 20,3 C 55 % 1009,9 hPa 0,0 l/m 0,0 km/h (0 Bft) O-SO 11,0 C 20,3 C 2,5 km/h (1 Bft)
18.06.2023 00:00 18,5 C 61 % 1010,1 hPa 0,0 l/m 2,5 km/h (1 Bft) O-SO 10,8 C 18,5 C 3,6 km/h (1 Bft)
18.06.2023 01:00 18,0 C 62 % 1009,7 hPa 0,0 l/m 0,0 km/h (0 Bft) SO 10,6 C 18,0 C 0,0 km/h (0 Bft)
18.06.2023 02:00 17,3 C 62 % 1009,7 hPa 0,0 l/m 5,0 km/h (1 Bft) SO 9,9 C 17,3 C 9,7 km/h (2 Bft)
18.06.2023 03:00 16,5 C 64 % 1009,3 hPa 0,0 l/m 2,5 km/h (1 Bft) N 9,7 C 16,5 C 3,6 km/h (1 Bft)
18.06.2023 04:00 15,9 C 66 % 1009,3 hPa 0,0 l/m 0,0 km/h (0 Bft) N 9,6 C 15,9 C 0,0 km/h (0 Bft)
18.06.2023 05:00 14,4 C 74 % 1009,5 hPa 0,0 l/m 0,0 km/h (0 Bft) N 9,8 C 14,4 C 2,5 km/h (1 Bft)
18.06.2023 06:00 13,6 C 75 % 1009,6 hPa 0,0 l/m 0,0 km/h (0 Bft) NO 9,3 C 13,6 C 2,5 km/h (1 Bft)
18.06.2023 07:00 14,0 C 74 % 1009,3 hPa 0,0 l/m 1,1 km/h (1 Bft) NO 9,4 C 14,0 C 2,5 km/h (1 Bft)
18.06.2023 08:00 16,0 C 69 % 1009,1 hPa 0,0 l/m 1,1 km/h (1 Bft) N 10,3 C 16,0 C 2,5 km/h (1 Bft)
18.06.2023 09:00 18,8 C 61 % 1009,9 hPa 0,0 l/m 0,0 km/h (0 Bft) N 11,1 C 18,8 C 2,5 km/h (1 Bft)
18.06.2023 10:00 22,3 C 51 % 1009,5 hPa 0,0 l/m 0,0 km/h (0 Bft) N-NO 11,7 C 22,3 C 2,5 km/h (1 Bft)
18.06.2023 11:00 25,0 C 43 % 1009,4 hPa 0,0 l/m 3,6 km/h (1 Bft) W-NW 11,5 C 25,0 C 6,1 km/h (2 Bft)
18.06.2023 12:00 27,7 C 36 % 1008,9 hPa 0,0 l/m 1,1 km/h (1 Bft) N-NO 11,3 C 27,7 C 2,5 km/h (1 Bft)
18.06.2023 13:00 29,7 C 31 % 1008,3 hPa 0,0 l/m 1,1 km/h (1 Bft) NW 10,7 C 29,7 C 2,5 km/h (1 Bft)
18.06.2023 14:00 30,2 C 32 % 1007,8 hPa 0,0 l/m 3,6 km/h (1 Bft) W 11,7 C 30,2 C 6,1 km/h (2 Bft)
18.06.2023 15:00 31,6 C 32 % 1007,2 hPa 0,0 l/m 6,1 km/h (2 Bft) NO 12,9 C 31,6 C 9,7 km/h (2 Bft)
18.06.2023 16:00 32,0 C 31 % 1006,8 hPa 0,0 l/m 1,1 km/h (1 Bft) NO 12,7 C 32,0 C 2,5 km/h (1 Bft)
18.06.2023 17:00 31,5 C 37 % 1006,3 hPa 0,0 l/m 1,1 km/h (1 Bft) W-SW 15,0 C 31,5 C 3,6 km/h (1 Bft)
18.06.2023 18:00 30,4 C 36 % 1006,3 hPa 0,0 l/m 3,6 km/h (1 Bft) W 13,6 C 30,4 C 6,1 km/h (2 Bft)
18.06.2023 19:00 29,8 C 36 % 1006,3 hPa 0,0 l/m 1,1 km/h (1 Bft) SW 13,1 C 29,8 C 2,5 km/h (1 Bft)
18.06.2023 20:00 25,8 C 51 % 1007,6 hPa 0,0 l/m 6,1 km/h (2 Bft) N 14,9 C 25,8 C 11,2 km/h (2 Bft)
18.06.2023 21:00 25,8 C 50 % 1006,9 hPa 0,0 l/m 0,0 km/h (0 Bft) O-SO 14,6 C 25,8 C 2,5 km/h (1 Bft)
18.06.2023 22:00 22,3 C 69 % 1007,3 hPa 0,0 l/m 1,1 km/h (1 Bft) N 16,3 C 22,3 C 2,5 km/h (1 Bft)
18.06.2023 23:00 20,4 C 74 % 1008,1 hPa 0,0 l/m 0,0 km/h (0 Bft) O-SO 15,6 C 20,4 C 0,0 km/h (0 Bft)
Min-Datum _ 15.06.23 13.06.23 13.06.23 - 12.06.23 - 13.06.23 15.06.23 12.06.23
_ Min-Zeit 07:21 18:21 18:21 - 00:21 - 18:21 07:21 00:21
Minimum _ 10,8 C 21 % 1003,7 hPa - 0,0 km/h (0 Bft) - 3,9 C 10,8 C 0,0 km/h (0 Bft)
Max-Datum _ 18.06.23 15.06.23 16.06.23 12.06.23 12.06.23 - 18.06.23 18.06.23 12.06.23
_ Max-Zeit 16:21 07:21 10:21 00:21 15:21 - 22:21 16:21 18:21
Maximum _ 32,0 C 86 % 1014,0 hPa 0,0 l/m 7,2 km/h
N-NO (2 Bft)
- 16,3 C 32,0 C 13,3 km/h
O-NO (3 Bft)
Durchschnitt _ 21,3 C 51 % 1009,3 hPa #0,0 l/m 2,1 km/h (1 Bft) N-NO 9,8 C 21,3 C 4,2 km/h (1 Bft)
www.sexauwetter.de